createdAt,value
2018-06-30T00:01:03.665Z,25.53
2018-06-30T00:04:03.711Z,23.33
2018-06-30T00:06:32.031Z,25.27
2018-06-30T00:09:00.385Z,23.03
2018-06-30T00:11:28.493Z,29.20
2018-06-30T00:13:57.112Z,25.40
2018-06-30T00:16:25.470Z,26.90
2018-06-30T00:18:53.784Z,25.47
2018-06-30T00:21:22.109Z,26.67
2018-06-30T00:23:50.435Z,28.80
2018-06-30T00:26:18.752Z,25.67
2018-06-30T00:28:47.112Z,22.73
2018-06-30T00:31:15.448Z,29.03
2018-06-30T00:33:43.780Z,27.43
2018-06-30T00:36:12.117Z,23.10
2018-06-30T00:38:40.463Z,27.17
2018-06-30T00:41:08.806Z,26.23
2018-06-30T00:43:37.158Z,29.23
2018-06-30T00:46:05.552Z,29.70
2018-06-30T00:48:33.932Z,26.63
2018-06-30T00:51:02.418Z,26.63
2018-06-30T00:53:30.743Z,27.13
2018-06-30T00:55:59.423Z,28.57
2018-06-30T00:58:27.763Z,30.00
2018-06-30T01:00:56.094Z,28.10
2018-06-30T01:03:24.394Z,28.70
2018-06-30T01:05:52.747Z,30.17
2018-06-30T01:08:21.111Z,24.70
2018-06-30T01:10:49.555Z,27.30
2018-06-30T01:13:17.863Z,25.00
2018-06-30T01:15:46.233Z,30.60
2018-06-30T01:18:14.550Z,29.77
2018-06-30T01:20:42.880Z,27.07
2018-06-30T01:23:11.215Z,30.27
2018-06-30T01:25:39.542Z,26.70
2018-06-30T01:28:07.884Z,26.30
2018-06-30T01:30:36.571Z,23.23
2018-06-30T01:33:04.918Z,27.13
2018-06-30T01:35:33.604Z,26.87
2018-06-30T01:38:01.916Z,27.87
2018-06-30T01:40:30.256Z,25.77
2018-06-30T01:42:58.573Z,27.27
2018-06-30T01:45:26.985Z,25.40
2018-06-30T01:47:55.315Z,28.43
2018-06-30T01:50:24.015Z,28.73
2018-06-30T01:52:52.358Z,25.20
2018-06-30T01:55:20.656Z,26.80
2018-06-30T01:57:49.018Z,29.03
2018-06-30T02:00:17.382Z,26.00
2018-06-30T02:02:45.715Z,24.23
2018-06-30T02:05:14.027Z,24.60
2018-06-30T02:07:42.376Z,28.10
2018-06-30T02:10:10.743Z,26.67
2018-06-30T02:12:39.061Z,25.57
2018-06-30T02:15:07.437Z,24.83
2018-06-30T02:17:35.764Z,26.70
2018-06-30T02:20:04.176Z,22.60
2018-06-30T02:22:32.541Z,23.33
2018-06-30T02:25:00.846Z,27.50
2018-06-30T02:27:29.169Z,23.93
2018-06-30T02:29:57.936Z,26.67
2018-06-30T02:32:26.222Z,24.90
2018-06-30T02:34:54.538Z,28.83
2018-06-30T02:37:22.825Z,24.30
2018-06-30T02:39:51.132Z,32.77
2018-06-30T02:42:19.692Z,24.60
2018-06-30T02:44:48.046Z,26.30
2018-06-30T02:47:16.551Z,27.20
2018-06-30T02:49:44.857Z,25.00
2018-06-30T02:52:13.664Z,23.90
2018-06-30T02:54:41.996Z,22.60
2018-06-30T02:57:10.552Z,24.67
2018-06-30T02:59:39.132Z,26.97
2018-06-30T03:02:07.864Z,24.57
2018-06-30T03:04:36.175Z,22.63
2018-06-30T03:07:04.507Z,26.63
2018-06-30T03:09:32.854Z,26.10
2018-06-30T03:12:01.186Z,22.13
2018-06-30T03:14:29.542Z,23.63
2018-06-30T03:16:57.935Z,21.50
2018-06-30T03:19:26.214Z,17.80
2018-06-30T03:21:54.548Z,20.53
2018-06-30T03:24:22.829Z,21.77
2018-06-30T03:26:51.156Z,17.90
2018-06-30T03:29:19.426Z,22.13
2018-06-30T03:31:47.743Z,23.03
2018-06-30T03:34:16.218Z,19.27
2018-06-30T03:36:44.541Z,24.43
2018-06-30T03:39:12.932Z,17.27
2018-06-30T03:41:41.278Z,19.83
2018-06-30T03:44:09.627Z,18.10
2018-06-30T03:48:07.802Z,21.47
2018-06-30T03:50:36.159Z,18.33
2018-06-30T03:53:04.800Z,21.00
2018-06-30T03:55:33.241Z,15.57
2018-06-30T03:58:01.551Z,25.23
2018-06-30T04:00:29.920Z,19.93
2018-06-30T04:02:58.235Z,20.73
2018-06-30T04:05:26.555Z,22.00
2018-06-30T04:07:54.899Z,19.20
2018-06-30T04:10:23.203Z,20.53
2018-06-30T04:12:51.535Z,18.50
2018-06-30T04:15:19.854Z,17.10
2018-06-30T04:17:48.259Z,20.93
2018-06-30T04:20:16.630Z,19.70
2018-06-30T04:22:44.956Z,19.03
2018-06-30T04:25:13.716Z,18.13
2018-06-30T04:27:42.032Z,15.10
2018-06-30T04:30:10.641Z,18.53
2018-06-30T04:32:38.968Z,17.27
2018-06-30T04:35:07.339Z,16.37
2018-06-30T04:37:35.645Z,18.13
2018-06-30T04:40:04.092Z,17.07
2018-06-30T04:42:32.424Z,16.97
2018-06-30T04:45:00.707Z,14.53
2018-06-30T04:47:29.373Z,15.63
2018-06-30T04:49:57.945Z,14.47
2018-06-30T04:52:26.254Z,15.00
2018-06-30T04:54:54.955Z,13.10
2018-06-30T04:57:23.009Z,15.33
2018-06-30T04:59:51.790Z,11.47
2018-06-30T05:02:20.105Z,12.03
2018-06-30T05:04:48.151Z,14.03
2018-06-30T05:07:16.499Z,17.73
2018-06-30T05:09:44.851Z,12.23
2018-06-30T05:12:13.155Z,14.37
2018-06-30T05:14:41.819Z,12.23
2018-06-30T05:17:10.728Z,12.30
2018-06-30T05:19:39.095Z,9.93
2018-06-30T05:22:07.856Z,10.77
2018-06-30T05:24:36.196Z,12.43
2018-06-30T05:27:04.791Z,15.13
2018-06-30T05:29:33.137Z,11.80
2018-06-30T05:32:01.529Z,11.27
2018-06-30T05:34:29.870Z,12.30
2018-06-30T05:36:58.549Z,9.67
2018-06-30T05:39:27.004Z,14.27
2018-06-30T05:41:55.323Z,12.00
2018-06-30T05:44:23.637Z,10.87
2018-06-30T05:46:52.805Z,11.05
2018-06-30T05:49:21.713Z,11.85
2018-06-30T05:51:50.023Z,8.97
2018-06-30T05:54:18.959Z,8.85
2018-06-30T05:56:47.811Z,12.95
2018-06-30T05:59:17.257Z,8.48
2018-06-30T06:01:46.496Z,10.85
2018-06-30T06:04:15.289Z,10.70
2018-06-30T06:06:44.506Z,7.55
2018-06-30T06:09:13.487Z,10.20
2018-06-30T06:11:42.777Z,14.28
2018-06-30T06:14:11.943Z,7.10
2018-06-30T06:16:40.869Z,7.58
2018-06-30T06:19:09.721Z,9.20
2018-06-30T06:21:39.205Z,8.15
2018-06-30T06:24:08.122Z,8.03
2018-06-30T06:26:37.036Z,7.62
2018-06-30T06:29:06.315Z,7.95
2018-06-30T06:31:35.182Z,8.85
2018-06-30T06:34:04.056Z,8.75
2018-06-30T06:36:33.330Z,9.78
2018-06-30T06:39:02.505Z,7.15
2018-06-30T06:41:31.408Z,7.40
2018-06-30T06:44:00.256Z,9.15
2018-06-30T06:46:29.452Z,7.50
2018-06-30T06:48:58.311Z,7.30
2018-06-30T06:51:27.187Z,8.78
2018-06-30T06:53:56.141Z,9.98
2018-06-30T06:56:24.818Z,5.85
2018-06-30T06:58:53.917Z,5.47
2018-06-30T07:01:22.871Z,7.80
2018-06-30T07:03:51.756Z,6.80
2018-06-30T07:06:20.610Z,7.35
2018-06-30T07:08:49.552Z,5.55
2018-06-30T07:11:18.991Z,7.65
2018-06-30T07:13:48.408Z,5.37
2018-06-30T07:16:17.302Z,8.65
2018-06-30T07:18:46.210Z,7.50
2018-06-30T07:21:15.115Z,7.10
2018-06-30T07:23:44.040Z,7.05
2018-06-30T07:26:12.892Z,7.22
2018-06-30T07:28:41.767Z,7.35
2018-06-30T07:31:10.642Z,5.50
2018-06-30T07:33:39.558Z,7.47
2018-06-30T07:36:08.502Z,6.37
2018-06-30T07:38:37.404Z,5.53
2018-06-30T07:41:06.316Z,4.60
2018-06-30T07:43:35.316Z,5.53
2018-06-30T07:46:04.275Z,5.47
2018-06-30T07:48:33.214Z,7.15
2018-06-30T07:51:02.099Z,7.00
2018-06-30T07:53:31.028Z,7.12
2018-06-30T07:56:00.051Z,5.50
2018-06-30T07:58:29.015Z,6.87
2018-06-30T08:00:58.028Z,8.13
2018-06-30T08:03:26.585Z,5.50
2018-06-30T08:05:55.808Z,5.75
2018-06-30T08:08:25.703Z,4.37
2018-06-30T08:10:54.578Z,6.62
2018-06-30T08:13:23.461Z,4.95
2018-06-30T08:15:52.419Z,4.28
2018-06-30T08:18:21.292Z,5.65
2018-06-30T08:20:50.207Z,5.40
2018-06-30T08:23:19.070Z,5.25
2018-06-30T08:25:47.985Z,5.42
2018-06-30T08:28:16.911Z,4.58
2018-06-30T08:30:45.852Z,4.00
2018-06-30T08:33:14.750Z,6.15
2018-06-30T08:35:43.681Z,6.95
2018-06-30T08:38:12.631Z,3.42
2018-06-30T08:40:41.523Z,4.30
2018-06-30T08:43:20.373Z,4.30
2018-06-30T08:45:49.340Z,4.42
2018-06-30T08:48:18.778Z,5.00
2018-06-30T08:50:47.724Z,7.20
2018-06-30T08:53:16.450Z,3.42
2018-06-30T08:55:45.464Z,3.25
2018-06-30T08:58:14.471Z,6.78
2018-06-30T09:00:43.445Z,4.70
2018-06-30T09:03:13.066Z,4.20
2018-06-30T09:05:41.972Z,3.75
2018-06-30T09:08:10.864Z,5.50
2018-06-30T09:10:40.208Z,4.35
2018-06-30T09:13:09.265Z,5.87
2018-06-30T09:15:38.351Z,3.92
2018-06-30T09:18:07.262Z,5.08
2018-06-30T09:20:36.131Z,4.50
2018-06-30T09:23:05.314Z,4.28
2018-06-30T09:25:34.220Z,4.42
2018-06-30T09:28:03.210Z,5.47
2018-06-30T09:30:32.069Z,6.12
2018-06-30T09:33:00.972Z,3.60
2018-06-30T09:35:29.891Z,5.15
2018-06-30T09:37:58.871Z,3.65
2018-06-30T09:40:27.920Z,4.05
2018-06-30T09:42:57.675Z,5.55
2018-06-30T09:45:26.570Z,4.55
2018-06-30T09:47:56.543Z,5.05
2018-06-30T09:50:26.589Z,3.35
2018-06-30T09:52:55.602Z,5.95
2018-06-30T09:55:24.609Z,4.97
2018-06-30T09:57:53.570Z,4.08
2018-06-30T10:01:29.405Z,7.08
2018-06-30T10:03:58.398Z,3.53
2018-06-30T10:06:27.382Z,4.92
2018-06-30T10:08:56.625Z,5.67
2018-06-30T10:11:25.522Z,5.33
2018-06-30T10:13:54.715Z,3.70
2018-06-30T10:16:32.989Z,4.87
2018-06-30T10:19:01.974Z,4.25
2018-06-30T10:21:31.726Z,4.65
2018-06-30T10:24:00.629Z,5.20
2018-06-30T10:26:29.899Z,5.37
2018-06-30T10:28:58.866Z,3.80
2018-06-30T10:31:27.721Z,4.12
2018-06-30T10:33:56.847Z,7.12
2018-06-30T10:36:25.503Z,4.95
2018-06-30T10:38:54.487Z,3.87
2018-06-30T10:41:23.437Z,4.35
2018-06-30T10:43:52.411Z,4.90
2018-06-30T10:46:22.323Z,4.20
2018-06-30T10:48:51.281Z,3.95
2018-06-30T10:51:20.218Z,6.25
2018-06-30T10:53:49.346Z,4.00
2018-06-30T10:56:17.983Z,3.55
2018-06-30T10:58:46.915Z,5.80
2018-06-30T11:01:16.520Z,4.28
2018-06-30T11:03:46.222Z,3.75
2018-06-30T11:06:16.834Z,3.80
2018-06-30T11:08:46.415Z,4.22
2018-06-30T11:11:16.045Z,2.87
2018-06-30T11:13:45.303Z,4.62
2018-06-30T11:16:16.005Z,4.20
2018-06-30T11:18:44.904Z,2.10
2018-06-30T11:21:13.836Z,2.83
2018-06-30T11:23:42.756Z,3.33
2018-06-30T11:26:12.409Z,2.80
2018-06-30T11:28:41.383Z,3.92
2018-06-30T11:31:10.268Z,3.10
2018-06-30T11:33:39.161Z,3.15
2018-06-30T11:36:08.072Z,3.75
2018-06-30T11:38:37.288Z,4.80
2018-06-30T11:41:06.588Z,4.17
2018-06-30T11:43:35.253Z,2.63
2018-06-30T11:46:03.953Z,2.47
2018-06-30T11:48:32.616Z,2.00
2018-06-30T11:51:01.495Z,2.00
2018-06-30T11:53:30.393Z,3.35
2018-06-30T11:55:59.367Z,3.98
2018-06-30T11:58:28.597Z,2.17
2018-06-30T12:00:57.145Z,2.17
2018-06-30T12:03:25.486Z,2.43
2018-06-30T12:05:54.334Z,2.23
2018-06-30T12:08:22.935Z,1.37
2018-06-30T12:10:51.565Z,2.07
2018-06-30T12:13:20.407Z,5.47
2018-06-30T12:15:50.246Z,2.50
2018-06-30T12:18:18.845Z,1.93
2018-06-30T12:20:47.431Z,3.17
2018-06-30T12:23:16.114Z,4.40
2018-06-30T12:25:45.346Z,3.30
2018-06-30T12:28:14.195Z,2.07
2018-06-30T12:30:42.786Z,1.43
2018-06-30T12:33:11.362Z,2.43
2018-06-30T12:35:40.243Z,3.30
2018-06-30T12:38:08.982Z,3.53
2018-06-30T12:40:37.643Z,2.47
2018-06-30T12:43:06.199Z,1.83
2018-06-30T12:45:35.272Z,2.20
2018-06-30T12:48:03.858Z,1.50
2018-06-30T12:50:32.456Z,2.20
2018-06-30T12:53:07.557Z,3.20
2018-06-30T12:55:36.704Z,2.23
2018-06-30T12:58:06.232Z,1.83
2018-06-30T13:00:35.116Z,2.60
2018-06-30T13:03:03.828Z,1.50
2018-06-30T13:05:32.598Z,2.30
2018-06-30T13:08:01.184Z,2.33
2018-06-30T13:10:29.993Z,2.83
2018-06-30T13:12:58.516Z,2.07
2018-06-30T13:15:28.332Z,2.27
2018-06-30T13:17:56.926Z,3.90
2018-06-30T13:20:25.529Z,2.90
2018-06-30T13:22:54.166Z,1.80
2018-06-30T13:25:22.746Z,3.67
2018-06-30T13:27:51.335Z,1.70
2018-06-30T13:30:20.233Z,33.20
2018-06-30T13:32:49.132Z,2.10
2018-06-30T13:35:18.103Z,2.50
2018-06-30T13:37:47.190Z,1.93
2018-06-30T13:40:15.768Z,1.37
2018-06-30T13:42:44.308Z,2.53
2018-06-30T13:45:13.083Z,2.07
2018-06-30T13:47:42.022Z,1.23
2018-06-30T13:50:10.559Z,3.07
2018-06-30T13:52:39.337Z,2.90
2018-06-30T13:55:08.401Z,1.73
2018-06-30T13:57:37.006Z,0.93
2018-06-30T14:00:15.281Z,2.00
2018-06-30T14:02:44.180Z,1.80
2018-06-30T14:05:12.749Z,2.03
2018-06-30T14:07:41.310Z,1.77
2018-06-30T14:10:09.881Z,3.97
2018-06-30T14:12:38.459Z,1.33
2018-06-30T14:17:42.149Z,7.60
2018-06-30T14:20:10.851Z,1.50
2018-06-30T14:22:39.473Z,3.30
2018-06-30T14:25:08.297Z,0.80
2018-06-30T14:27:37.079Z,0.87
2018-06-30T14:30:08.069Z,1.23
2018-06-30T14:32:36.644Z,2.30
2018-06-30T14:35:05.295Z,2.37
2018-06-30T14:37:33.874Z,2.17
2018-06-30T14:40:02.497Z,1.03
2018-06-30T14:42:31.099Z,1.33
2018-06-30T14:44:59.689Z,4.07
2018-06-30T14:47:28.239Z,2.37
2018-06-30T14:49:56.898Z,2.47
2018-06-30T14:52:25.478Z,2.60
2018-06-30T14:54:54.078Z,2.87
2018-06-30T14:57:23.090Z,1.20
2018-06-30T14:59:51.612Z,1.53
2018-06-30T15:02:20.235Z,1.03
2018-06-30T15:04:48.797Z,1.13
2018-06-30T15:07:17.399Z,3.40
2018-06-30T15:09:46.283Z,0.90
2018-06-30T15:12:14.853Z,2.47
2018-06-30T15:14:43.504Z,1.37
2018-06-30T15:17:11.881Z,3.33
2018-06-30T15:19:40.492Z,2.57
2018-06-30T15:22:09.108Z,3.67
2018-06-30T15:24:37.693Z,1.87
2018-06-30T15:27:06.472Z,1.07
2018-06-30T15:29:35.356Z,3.23
2018-06-30T15:32:03.935Z,1.47
2018-06-30T15:34:32.499Z,1.90
2018-06-30T15:37:01.064Z,0.90
2018-06-30T15:39:29.711Z,4.87
2018-06-30T15:41:58.318Z,1.93
2018-06-30T15:44:27.118Z,2.70
2018-06-30T15:46:55.681Z,4.50
2018-06-30T15:49:24.265Z,1.10
2018-06-30T15:51:52.890Z,3.33
2018-06-30T15:54:21.453Z,2.07
2018-06-30T15:56:50.019Z,0.80
2018-06-30T15:59:18.629Z,2.93
2018-06-30T16:01:47.351Z,1.00
2018-06-30T16:04:15.968Z,2.50
2018-06-30T16:06:44.525Z,1.20
2018-06-30T16:09:13.161Z,2.67
2018-06-30T16:11:42.066Z,2.20
2018-06-30T16:14:10.639Z,1.73
2018-06-30T16:16:39.849Z,2.17
2018-06-30T16:19:08.508Z,0.80
2018-06-30T16:21:37.368Z,1.83
2018-06-30T16:24:05.938Z,5.17
2018-06-30T16:26:34.509Z,2.40
2018-06-30T16:29:03.100Z,2.50
2018-06-30T16:31:31.663Z,1.87
2018-06-30T16:34:00.226Z,2.60
2018-06-30T16:36:28.780Z,3.47
2018-06-30T16:38:57.670Z,1.87
2018-06-30T16:41:26.289Z,2.50
2018-06-30T16:43:54.886Z,1.93
2018-06-30T16:46:23.479Z,1.63
2018-06-30T16:48:55.342Z,1.87
2018-06-30T16:51:23.896Z,1.93
2018-06-30T16:53:53.174Z,1.30
2018-06-30T16:56:21.665Z,1.20
2018-06-30T16:58:50.266Z,2.27
2018-06-30T17:01:19.347Z,1.97
2018-06-30T17:03:47.925Z,2.23
2018-06-30T17:06:16.877Z,1.60
2018-06-30T17:08:48.932Z,0.73
2018-06-30T17:11:17.493Z,1.67
2018-06-30T17:13:46.066Z,1.83
2018-06-30T17:16:17.773Z,3.87
2018-06-30T17:18:46.359Z,0.93
2018-06-30T17:21:14.921Z,2.10
2018-06-30T17:23:43.490Z,3.23
2018-06-30T17:26:12.446Z,1.30
2018-06-30T17:28:41.172Z,3.67
2018-06-30T17:31:10.166Z,2.37
2018-06-30T17:33:38.983Z,2.50
2018-06-30T17:36:07.838Z,2.63
2018-06-30T17:38:36.413Z,2.70
2018-06-30T17:41:04.970Z,1.53
2018-06-30T17:43:33.595Z,3.17
2018-06-30T17:46:02.198Z,1.47
2018-06-30T17:48:30.776Z,3.13
2018-06-30T17:50:59.361Z,1.37
2018-06-30T17:53:28.009Z,3.47
2018-06-30T17:55:57.123Z,2.93
2018-06-30T17:58:26.059Z,2.10
2018-06-30T18:00:54.617Z,3.00
2018-06-30T18:03:23.148Z,1.70
2018-06-30T18:05:51.447Z,2.73
2018-06-30T18:08:20.022Z,1.70
2018-06-30T18:10:49.308Z,8.85
2018-06-30T18:13:18.144Z,3.42
2018-06-30T18:15:46.843Z,1.50
2018-06-30T18:18:16.231Z,2.22
2018-06-30T18:20:45.192Z,5.05
2018-06-30T18:23:14.038Z,1.77
2018-06-30T18:25:42.921Z,2.12
2018-06-30T18:28:11.772Z,2.10
2018-06-30T18:30:40.607Z,1.75
2018-06-30T18:33:09.435Z,3.20
2018-06-30T18:35:38.318Z,1.12
2018-06-30T18:38:07.183Z,3.27
2018-06-30T18:40:36.026Z,2.35
2018-06-30T18:43:04.887Z,3.60
2018-06-30T18:45:33.937Z,4.60
2018-06-30T18:48:02.969Z,2.98
2018-06-30T18:50:31.864Z,1.30
2018-06-30T18:53:01.067Z,3.37
2018-06-30T18:55:29.919Z,2.75
2018-06-30T18:57:59.286Z,1.35
2018-06-30T19:00:28.279Z,6.12
2018-06-30T19:02:57.152Z,1.15
2018-06-30T19:05:25.794Z,2.40
2018-06-30T19:07:54.791Z,1.52
2018-06-30T19:10:23.640Z,1.20
2018-06-30T19:12:53.598Z,0.80
2018-06-30T19:15:22.446Z,2.75
2018-06-30T19:17:51.295Z,4.83
2018-06-30T19:20:20.171Z,1.27
2018-06-30T19:22:48.982Z,2.55
2018-06-30T19:25:17.838Z,1.00
2018-06-30T19:27:47.069Z,1.67
2018-06-30T19:30:15.901Z,2.83
2018-06-30T19:32:44.750Z,1.85
2018-06-30T19:35:13.690Z,1.62
2018-06-30T19:37:42.621Z,1.82
2018-06-30T19:40:11.515Z,1.40
2018-06-30T19:42:40.393Z,3.20
2018-06-30T19:45:09.606Z,3.05
2018-06-30T19:47:38.545Z,1.87
2018-06-30T19:50:07.387Z,4.33
2018-06-30T19:52:42.474Z,2.25
2018-06-30T19:55:16.446Z,4.12
2018-06-30T19:57:45.291Z,2.83
2018-06-30T20:00:14.217Z,1.87
2018-06-30T20:02:43.092Z,1.70
2018-06-30T20:05:11.730Z,1.70
2018-06-30T20:07:46.056Z,2.58
2018-06-30T20:12:49.339Z,2.95
2018-06-30T20:15:18.294Z,4.65
2018-06-30T20:17:47.230Z,2.77
2018-06-30T20:20:16.159Z,3.37
2018-06-30T20:22:45.491Z,3.55
2018-06-30T20:25:14.347Z,2.95
2018-06-30T20:27:43.195Z,4.30
2018-06-30T20:30:12.208Z,2.12
2018-06-30T20:32:41.151Z,4.03
2018-06-30T20:35:10.075Z,2.00
2018-06-30T20:37:38.933Z,2.37
2018-06-30T20:40:07.541Z,2.42
2018-06-30T20:42:36.521Z,1.30
2018-06-30T20:45:14.700Z,3.08
2018-06-30T20:47:43.453Z,2.65
2018-06-30T20:50:15.609Z,4.45
2018-06-30T20:52:44.473Z,2.20
2018-06-30T20:55:13.374Z,1.75
2018-06-30T20:57:42.231Z,1.50
2018-06-30T21:00:11.229Z,2.27
2018-06-30T21:02:43.469Z,4.67
2018-06-30T21:05:12.386Z,1.40
2018-06-30T21:07:41.296Z,3.05
2018-06-30T21:10:11.094Z,1.90
2018-06-30T21:12:40.008Z,1.37
2018-06-30T21:15:08.956Z,1.90
2018-06-30T21:17:37.916Z,1.75
2018-06-30T21:20:07.233Z,2.27
2018-06-30T21:22:36.079Z,2.12
2018-06-30T21:25:05.512Z,1.37
2018-06-30T21:27:44.132Z,3.30
2018-06-30T21:30:16.401Z,3.17
2018-06-30T21:32:45.356Z,1.92
2018-06-30T21:35:14.307Z,2.25
2018-06-30T21:37:43.413Z,0.78
2018-06-30T21:40:12.419Z,2.60
2018-06-30T21:42:41.346Z,2.60
2018-06-30T21:45:10.258Z,2.00
2018-06-30T21:47:39.137Z,1.82
2018-06-30T21:50:08.109Z,2.02
2018-06-30T21:52:37.189Z,3.22
2018-06-30T21:55:06.315Z,1.20
2018-06-30T21:57:35.248Z,1.20
2018-06-30T22:00:06.429Z,2.40
2018-06-30T22:02:35.518Z,1.98
2018-06-30T22:05:04.670Z,2.62
2018-06-30T22:07:33.503Z,1.02
2018-06-30T22:10:02.361Z,2.17
2018-06-30T22:12:31.510Z,1.85
2018-06-30T22:15:00.340Z,1.50
2018-06-30T22:17:29.516Z,1.47
2018-06-30T22:19:58.354Z,1.05
2018-06-30T22:22:27.171Z,1.85
2018-06-30T22:24:56.008Z,2.08
2018-06-30T22:27:25.133Z,1.37
2018-06-30T22:29:53.982Z,1.65
2018-06-30T22:32:23.167Z,2.02
2018-06-30T22:34:51.987Z,3.55
2018-06-30T22:37:21.080Z,3.30
2018-06-30T22:40:01.154Z,2.58
2018-06-30T22:42:29.700Z,1.12
2018-06-30T22:44:58.540Z,3.10
2018-06-30T22:47:27.351Z,2.55
2018-06-30T22:49:56.170Z,2.15
2018-06-30T22:52:24.967Z,1.80
2018-06-30T22:54:53.823Z,1.60
2018-06-30T22:57:23.018Z,2.58
2018-06-30T22:59:51.830Z,3.67
2018-06-30T23:02:20.628Z,1.00
2018-06-30T23:04:49.645Z,1.32
2018-06-30T23:07:18.456Z,1.92
2018-06-30T23:09:47.252Z,2.85
2018-06-30T23:12:16.080Z,3.00
2018-06-30T23:14:45.528Z,1.92
2018-06-30T23:17:14.363Z,1.20
2018-06-30T23:19:43.155Z,1.30
2018-06-30T23:22:12.082Z,3.72
2018-06-30T23:24:40.938Z,1.62
2018-06-30T23:27:09.790Z,2.10
2018-06-30T23:29:38.741Z,2.05
2018-06-30T23:32:07.297Z,1.40
2018-06-30T23:34:36.158Z,2.17
2018-06-30T23:37:05.622Z,3.85
2018-06-30T23:39:34.785Z,2.33
2018-06-30T23:42:03.627Z,2.65
2018-06-30T23:44:32.461Z,2.22
2018-06-30T23:47:01.527Z,4.67
2018-06-30T23:49:30.328Z,2.10
2018-06-30T23:51:59.018Z,2.55
2018-06-30T23:54:27.878Z,1.90
2018-06-30T23:56:56.186Z,2.30
2018-06-30T23:59:24.469Z,1.70
